sensor_id;sensor_type;location;lat;lon;timestamp;pressure;altitude;pressure_sealevel;temperature;humidity
75192;BME280;63771;52.580;9.734;2023-02-15T00:01:15;102674.31;;;1.82;94.51
75192;BME280;63771;52.580;9.734;2023-02-15T00:03:40;102675.00;;;1.81;94.45
75192;BME280;63771;52.580;9.734;2023-02-15T00:06:05;102668.16;;;1.80;94.63
75192;BME280;63771;52.580;9.734;2023-02-15T00:08:31;102671.38;;;1.79;94.50
75192;BME280;63771;52.580;9.734;2023-02-15T00:11:07;102667.69;;;1.77;94.71
75192;BME280;63771;52.580;9.734;2023-02-15T00:13:32;102661.31;;;1.73;94.72
75192;BME280;63771;52.580;9.734;2023-02-15T00:16:06;102666.09;;;1.72;94.30
75192;BME280;63771;52.580;9.734;2023-02-15T00:18:33;102660.16;;;1.66;94.18
75192;BME280;63771;52.580;9.734;2023-02-15T00:21:03;102670.44;;;1.62;94.26
75192;BME280;63771;52.580;9.734;2023-02-15T00:23:29;102654.47;;;1.55;94.34
75192;BME280;63771;52.580;9.734;2023-02-15T00:26:05;102650.34;;;1.50;94.32
75192;BME280;63771;52.580;9.734;2023-02-15T00:28:31;102647.41;;;1.47;94.21
75192;BME280;63771;52.580;9.734;2023-02-15T00:31:03;102656.56;;;1.41;94.27
75192;BME280;63771;52.580;9.734;2023-02-15T00:33:28;102648.53;;;1.38;94.33
75192;BME280;63771;52.580;9.734;2023-02-15T00:36:01;102646.94;;;1.33;93.86
75192;BME280;63771;52.580;9.734;2023-02-15T00:38:27;102643.94;;;1.24;93.59
75192;BME280;63771;52.580;9.734;2023-02-15T00:40:54;102648.97;;;1.19;93.56
75192;BME280;63771;52.580;9.734;2023-02-15T00:43:19;102646.47;;;1.13;93.68
75192;BME280;63771;52.580;9.734;2023-02-15T00:45:45;102645.34;;;1.06;93.73
75192;BME280;63771;52.580;9.734;2023-02-15T00:48:11;102635.28;;;1.00;93.64
75192;BME280;63771;52.580;9.734;2023-02-15T00:50:36;102638.00;;;0.96;93.91
75192;BME280;63771;52.580;9.734;2023-02-15T00:53:02;102643.03;;;0.90;93.85
75192;BME280;63771;52.580;9.734;2023-02-15T00:55:27;102643.72;;;0.89;94.04
75192;BME280;63771;52.580;9.734;2023-02-15T00:57:53;102645.75;;;0.86;93.98
75192;BME280;63771;52.580;9.734;2023-02-15T01:00:18;102643.22;;;0.81;93.92
75192;BME280;63771;52.580;9.734;2023-02-15T01:02:43;102647.56;;;0.76;94.06
75192;BME280;63771;52.580;9.734;2023-02-15T01:05:09;102641.63;;;0.70;94.06
75192;BME280;63771;52.580;9.734;2023-02-15T01:07:34;102643.66;;;0.67;94.16
75192;BME280;63771;52.580;9.734;2023-02-15T01:09:59;102641.13;;;0.61;93.94
75192;BME280;63771;52.580;9.734;2023-02-15T01:12:24;102642.50;;;0.59;94.02
75192;BME280;63771;52.580;9.734;2023-02-15T01:14:50;102633.81;;;0.57;94.17
75192;BME280;63771;52.580;9.734;2023-02-15T01:17:15;102635.19;;;0.55;94.00
75192;BME280;63771;52.580;9.734;2023-02-15T01:19:40;102631.97;;;0.50;94.17
75192;BME280;63771;52.580;9.734;2023-02-15T01:22:06;102632.88;;;0.45;94.11
75192;BME280;63771;52.580;9.734;2023-02-15T01:24:32;102604.09;;;0.32;94.21
75192;BME280;63771;52.580;9.734;2023-02-15T01:26:57;102618.91;;;0.36;94.20
75192;BME280;63771;52.580;9.734;2023-02-15T01:29:22;102622.78;;;0.34;94.03
75192;BME280;63771;52.580;9.734;2023-02-15T01:31:47;102624.59;;;0.30;94.12
75192;BME280;63771;52.580;9.734;2023-02-15T01:34:13;102619.78;;;0.25;94.12
75192;BME280;63771;52.580;9.734;2023-02-15T01:36:38;102616.34;;;0.19;93.75
75192;BME280;63771;52.580;9.734;2023-02-15T01:39:03;102619.50;;;0.13;93.56
75192;BME280;63771;52.580;9.734;2023-02-15T01:41:29;102607.34;;;-0.01;93.77
75192;BME280;63771;52.580;9.734;2023-02-15T01:44:00;102625.63;;;0.04;93.77
75192;BME280;63771;52.580;9.734;2023-02-15T01:46:31;102624.91;;;-0.01;93.98
75192;BME280;63771;52.580;9.734;2023-02-15T01:49:03;102623.97;;;-0.07;93.91
75192;BME280;63771;52.580;9.734;2023-02-15T01:51:30;102625.09;;;-0.11;94.08
75192;BME280;63771;52.580;9.734;2023-02-15T01:54:05;102619.38;;;-0.15;94.02
75192;BME280;63771;52.580;9.734;2023-02-15T01:56:36;102620.50;;;-0.19;94.02
75192;BME280;63771;52.580;9.734;2023-02-15T01:59:05;102610.88;;;-0.21;94.12
75192;BME280;63771;52.580;9.734;2023-02-15T02:01:31;102613.41;;;-0.21;94.26
75192;BME280;63771;52.580;9.734;2023-02-15T02:04:10;102608.84;;;-0.24;94.20
75192;BME280;63771;52.580;9.734;2023-02-15T02:06:39;102609.94;;;-0.28;94.26
75192;BME280;63771;52.580;9.734;2023-02-15T02:09:04;102604.22;;;-0.32;94.07
75192;BME280;63771;52.580;9.734;2023-02-15T02:11:29;102596.94;;;-0.36;94.09
75192;BME280;63771;52.580;9.734;2023-02-15T02:13:56;102598.25;;;-0.38;94.34
75192;BME280;63771;52.580;9.734;2023-02-15T02:16:39;102596.44;;;-0.39;94.95
75192;BME280;63771;52.580;9.734;2023-02-15T02:19:45;102594.81;;;-0.44;94.30
75192;BME280;63771;52.580;9.734;2023-02-15T02:22:57;102590.91;;;-0.48;93.99
75192;BME280;63771;52.580;9.734;2023-02-15T02:29:09;102578.59;;;-0.52;94.32
75192;BME280;63771;52.580;9.734;2023-02-15T02:34:21;102573.09;;;-0.55;94.24
75192;BME280;63771;52.580;9.734;2023-02-15T02:39:59;102566.28;;;-0.50;94.31
75192;BME280;63771;52.580;9.734;2023-02-15T02:45:02;102562.16;;;-0.56;94.37
75192;BME280;63771;52.580;9.734;2023-02-15T02:47:45;102551.66;;;-0.59;94.26
75192;BME280;63771;52.580;9.734;2023-02-15T02:50:16;102549.81;;;-0.60;94.21
75192;BME280;63771;52.580;9.734;2023-02-15T02:52:53;102551.66;;;-0.59;94.50
75192;BME280;63771;52.580;9.734;2023-02-15T02:57:57;102549.09;;;-0.64;94.22
75192;BME280;63771;52.580;9.734;2023-02-15T03:00:28;102550.25;;;-0.68;94.23
75192;BME280;63771;52.580;9.734;2023-02-15T03:03:02;102547.03;;;-0.72;94.17
75192;BME280;63771;52.580;9.734;2023-02-15T03:05:32;102542.00;;;-0.72;94.13
75192;BME280;63771;52.580;9.734;2023-02-15T03:07:59;102539.69;;;-0.76;93.98
75192;BME280;63771;52.580;9.734;2023-02-15T03:10:27;102540.38;;;-0.77;93.99
75192;BME280;63771;52.580;9.734;2023-02-15T03:12:53;102531.69;;;-0.80;94.08
75192;BME280;63771;52.580;9.734;2023-02-15T03:15:29;102535.78;;;-0.80;93.94
75192;BME280;63771;52.580;9.734;2023-02-15T03:18:20;102536.47;;;-0.81;93.90
75192;BME280;63771;52.580;9.734;2023-02-15T03:20:47;102520.91;;;-0.90;94.05
75192;BME280;63771;52.580;9.734;2023-02-15T03:23:19;102530.31;;;-0.83;94.06
75192;BME280;63771;52.580;9.734;2023-02-15T03:25:50;102528.25;;;-0.86;94.00
75192;BME280;63771;52.580;9.734;2023-02-15T03:28:25;102529.38;;;-0.84;94.01
75192;BME280;63771;52.580;9.734;2023-02-15T03:30:55;102526.63;;;-0.91;94.31
75192;BME280;63771;52.580;9.734;2023-02-15T03:33:23;102532.78;;;-0.89;94.37
75192;BME280;63771;52.580;9.734;2023-02-15T03:36:21;102544.16;;;-0.91;94.52
75192;BME280;63771;52.580;9.734;2023-02-15T03:38:53;102535.22;;;-0.94;94.25
75192;BME280;63771;52.580;9.734;2023-02-15T03:41:26;102532.03;;;-0.99;94.10
75192;BME280;63771;52.580;9.734;2023-02-15T03:46:34;102529.69;;;-1.09;94.74
75192;BME280;63771;52.580;9.734;2023-02-15T03:49:04;102541.97;;;-1.05;94.74
75192;BME280;63771;52.580;9.734;2023-02-15T03:51:35;102543.34;;;-1.07;94.84
75192;BME280;63771;52.580;9.734;2023-02-15T03:54:09;102542.38;;;-1.13;94.71
75192;BME280;63771;52.580;9.734;2023-02-15T03:56:38;102549.41;;;-1.16;94.90
75192;BME280;63771;52.580;9.734;2023-02-15T03:59:04;102542.13;;;-1.20;95.18
75192;BME280;63771;52.580;9.734;2023-02-15T04:01:58;102541.81;;;-1.27;95.28
75192;BME280;63771;52.580;9.734;2023-02-15T04:04:31;102542.47;;;-1.28;95.23
75192;BME280;63771;52.580;9.734;2023-02-15T04:06:57;102534.28;;;-1.27;95.23
75192;BME280;63771;52.580;9.734;2023-02-15T04:09:22;102531.31;;;-1.30;95.29
75192;BME280;63771;52.580;9.734;2023-02-15T04:12:06;102520.63;;;-1.29;95.22
75192;BME280;63771;52.580;9.734;2023-02-15T04:14:32;102519.91;;;-1.34;95.00
75192;BME280;63771;52.580;9.734;2023-02-15T04:17:16;102519.28;;;-1.27;95.31
75192;BME280;63771;52.580;9.734;2023-02-15T04:19:41;102522.47;;;-1.28;94.89
75192;BME280;63771;52.580;9.734;2023-02-15T04:22:25;102519.72;;;-1.29;95.03
75192;BME280;63771;52.580;9.734;2023-02-15T04:25:09;102512.16;;;-1.35;94.79
75192;BME280;63771;52.580;9.734;2023-02-15T04:27:36;102522.66;;;-1.32;94.93
75192;BME280;63771;52.580;9.734;2023-02-15T04:30:02;102506.00;;;-1.37;94.66
75192;BME280;63771;52.580;9.734;2023-02-15T04:32:27;102511.69;;;-1.38;94.63
75192;BME280;63771;52.580;9.734;2023-02-15T04:34:53;102514.84;;;-1.39;94.54
75192;BME280;63771;52.580;9.734;2023-02-15T04:37:18;102516.88;;;-1.42;94.32
75192;BME280;63771;52.580;9.734;2023-02-15T04:39:43;102511.41;;;-1.45;94.49
75192;BME280;63771;52.580;9.734;2023-02-15T04:42:09;102519.81;;;-1.45;94.42
75192;BME280;63771;52.580;9.734;2023-02-15T04:44:34;102506.13;;;-1.47;94.40
75192;BME280;63771;52.580;9.734;2023-02-15T04:46:59;102502.72;;;-1.47;94.17
75192;BME280;63771;52.580;9.734;2023-02-15T04:49:24;102499.06;;;-1.49;94.28
75192;BME280;63771;52.580;9.734;2023-02-15T04:51:50;102494.75;;;-1.50;94.19
75192;BME280;63771;52.580;9.734;2023-02-15T04:54:15;102489.63;;;-1.62;94.36
75192;BME280;63771;52.580;9.734;2023-02-15T04:56:40;102496.97;;;-1.52;94.29
75192;BME280;63771;52.580;9.734;2023-02-15T04:59:09;102494.47;;;-1.52;94.12
75192;BME280;63771;52.580;9.734;2023-02-15T05:01:35;102496.34;;;-1.51;94.34
75192;BME280;63771;52.580;9.734;2023-02-15T05:04:00;102492.88;;;-1.51;94.29
75192;BME280;63771;52.580;9.734;2023-02-15T05:06:25;102494.06;;;-1.49;94.32
75192;BME280;63771;52.580;9.734;2023-02-15T05:08:51;102493.56;;;-1.52;94.11
75192;BME280;63771;52.580;9.734;2023-02-15T05:11:16;102494.94;;;-1.54;94.11
75192;BME280;63771;52.580;9.734;2023-02-15T05:13:42;102498.09;;;-1.55;94.09
75192;BME280;63771;52.580;9.734;2023-02-15T05:16:07;102486.91;;;-1.58;94.35
75192;BME280;63771;52.580;9.734;2023-02-15T05:18:33;102477.13;;;-1.62;94.38
75192;BME280;63771;52.580;9.734;2023-02-15T05:20:58;102473.00;;;-1.67;94.32
75192;BME280;63771;52.580;9.734;2023-02-15T05:23:23;102481.63;;;-1.65;94.20
75192;BME280;63771;52.580;9.734;2023-02-15T05:25:49;102479.81;;;-1.66;94.37
75192;BME280;63771;52.580;9.734;2023-02-15T05:28:35;102472.72;;;-1.68;94.32
75192;BME280;63771;52.580;9.734;2023-02-15T05:31:07;102471.13;;;-1.68;94.30
75192;BME280;63771;52.580;9.734;2023-02-15T05:33:33;102469.53;;;-1.67;94.22
75192;BME280;63771;52.580;9.734;2023-02-15T05:35:59;102457.53;;;-1.64;94.19
75192;BME280;63771;52.580;9.734;2023-02-15T05:38:25;102446.56;;;-1.70;93.82
75192;BME280;63771;52.580;9.734;2023-02-15T05:40:51;102456.63;;;-1.65;93.75
75192;BME280;63771;52.580;9.734;2023-02-15T05:43:16;102451.56;;;-1.70;93.74
75192;BME280;63771;52.580;9.734;2023-02-15T05:45:48;102457.72;;;-1.68;93.59
75192;BME280;63771;52.580;9.734;2023-02-15T05:48:15;102460.66;;;-1.71;93.44
75192;BME280;63771;52.580;9.734;2023-02-15T05:50:40;102459.25;;;-1.74;93.41
75192;BME280;63771;52.580;9.734;2023-02-15T05:53:05;102449.38;;;-1.84;93.20
75192;BME280;63771;52.580;9.734;2023-02-15T05:55:31;102436.78;;;-1.95;93.28
75192;BME280;63771;52.580;9.734;2023-02-15T05:57:56;102468.31;;;-1.80;93.17
75192;BME280;63771;52.580;9.734;2023-02-15T06:00:22;102469.88;;;-1.81;93.35
75192;BME280;63771;52.580;9.734;2023-02-15T06:02:47;102474.16;;;-1.86;93.36
75192;BME280;63771;52.580;9.734;2023-02-15T06:05:13;102470.44;;;-1.93;93.28
75192;BME280;63771;52.580;9.734;2023-02-15T06:07:38;102482.06;;;-1.88;93.46
75192;BME280;63771;52.580;9.734;2023-02-15T06:10:04;102482.53;;;-1.91;93.38
75192;BME280;63771;52.580;9.734;2023-02-15T06:12:30;102476.91;;;-2.05;93.40
75192;BME280;63771;52.580;9.734;2023-02-15T06:14:55;102489.72;;;-1.98;93.70
75192;BME280;63771;52.580;9.734;2023-02-15T06:17:21;102487.63;;;-2.00;93.73
75192;BME280;63771;52.580;9.734;2023-02-15T06:19:47;102480.38;;;-1.99;93.75
75192;BME280;63771;52.580;9.734;2023-02-15T06:22:12;102474.91;;;-2.02;93.78
75192;BME280;63771;52.580;9.734;2023-02-15T06:24:39;102463.72;;;-2.04;93.58
75192;BME280;63771;52.580;9.734;2023-02-15T06:27:05;102467.16;;;-2.03;93.66
75192;BME280;63771;52.580;9.734;2023-02-15T06:29:30;102470.31;;;-2.04;93.37
75192;BME280;63771;52.580;9.734;2023-02-15T06:31:55;102466.00;;;-2.05;93.53
75192;BME280;63771;52.580;9.734;2023-02-15T06:34:21;102463.25;;;-2.07;93.45
75192;BME280;63771;52.580;9.734;2023-02-15T06:36:46;102470.75;;;-2.07;93.46
75192;BME280;63771;52.580;9.734;2023-02-15T06:39:11;102463.19;;;-2.13;93.34
75192;BME280;63771;52.580;9.734;2023-02-15T06:41:37;102469.56;;;-2.09;93.41
75192;BME280;63771;52.580;9.734;2023-02-15T06:44:02;102466.84;;;-2.11;93.47
75192;BME280;63771;52.580;9.734;2023-02-15T06:46:28;102461.84;;;-2.11;93.52
75192;BME280;63771;52.580;9.734;2023-02-15T06:48:53;102451.09;;;-2.15;93.24
75192;BME280;63771;52.580;9.734;2023-02-15T06:51:19;102458.88;;;-2.14;93.43
75192;BME280;63771;52.580;9.734;2023-02-15T06:53:44;102459.34;;;-2.11;93.25
75192;BME280;63771;52.580;9.734;2023-02-15T06:56:10;102446.06;;;-2.21;93.17
75192;BME280;63771;52.580;9.734;2023-02-15T06:58:37;102447.53;;;-2.12;93.35
75192;BME280;63771;52.580;9.734;2023-02-15T07:01:03;102459.34;;;-2.11;93.21
75192;BME280;63771;52.580;9.734;2023-02-15T07:03:29;102458.03;;;-2.08;93.45
75192;BME280;63771;52.580;9.734;2023-02-15T07:05:59;102455.75;;;-2.07;93.44
75192;BME280;63771;52.580;9.734;2023-02-15T07:08:25;102453.25;;;-2.07;93.37
75192;BME280;63771;52.580;9.734;2023-02-15T07:10:52;102455.53;;;-2.08;93.37
75192;BME280;63771;52.580;9.734;2023-02-15T07:13:18;102448.19;;;-2.13;93.85
75192;BME280;63771;52.580;9.734;2023-02-15T07:15:44;102464.66;;;-2.03;93.41
75192;BME280;63771;52.580;9.734;2023-02-15T07:18:10;102470.81;;;-2.01;93.71
75192;BME280;63771;52.580;9.734;2023-02-15T07:20:36;102473.81;;;-1.98;93.73
75192;BME280;63771;52.580;9.734;2023-02-15T07:23:03;102467.22;;;-1.98;93.45
75192;BME280;63771;52.580;9.734;2023-02-15T07:25:29;102469.97;;;-1.96;93.61
75192;BME280;63771;52.580;9.734;2023-02-15T07:28:02;102474.50;;;-1.94;93.75
75192;BME280;63771;52.580;9.734;2023-02-15T07:30:28;102452.88;;;-1.99;93.83
75192;BME280;63771;52.580;9.734;2023-02-15T07:32:58;102463.19;;;-1.92;93.88
75192;BME280;63771;52.580;9.734;2023-02-15T07:35:51;102468.66;;;-1.89;93.90
75192;BME280;63771;52.580;9.734;2023-02-15T07:38:18;102461.44;;;-1.87;93.86
75192;BME280;63771;52.580;9.734;2023-02-15T07:40:44;102463.47;;;-1.85;94.06
75192;BME280;63771;52.580;9.734;2023-02-15T07:43:09;102449.56;;;-1.88;94.00
75192;BME280;63771;52.580;9.734;2023-02-15T07:45:35;102464.22;;;-1.80;94.02
75192;BME280;63771;52.580;9.734;2023-02-15T07:48:01;102468.13;;;-1.76;94.23
75192;BME280;63771;52.580;9.734;2023-02-15T07:50:26;102452.38;;;-1.81;94.12
75192;BME280;63771;52.580;9.734;2023-02-15T07:52:52;102457.91;;;-1.72;94.21
75192;BME280;63771;52.580;9.734;2023-02-15T07:55:17;102449.75;;;-1.71;94.35
75192;BME280;63771;52.580;9.734;2023-02-15T07:57:48;102456.63;;;-1.65;94.30
75192;BME280;63771;52.580;9.734;2023-02-15T08:00:16;102459.16;;;-1.59;94.79
75192;BME280;63771;52.580;9.734;2023-02-15T08:02:42;102447.38;;;-1.54;94.47
75192;BME280;63771;52.580;9.734;2023-02-15T08:05:12;102433.50;;;-1.52;94.54
75192;BME280;63771;52.580;9.734;2023-02-15T08:07:37;102430.41;;;-1.46;94.66
75192;BME280;63771;52.580;9.734;2023-02-15T08:10:02;102435.44;;;-1.40;94.65
75192;BME280;63771;52.580;9.734;2023-02-15T08:12:28;102430.22;;;-1.36;94.87
75192;BME280;63771;52.580;9.734;2023-02-15T08:14:54;102413.19;;;-1.33;94.86
75192;BME280;63771;52.580;9.734;2023-02-15T08:17:19;102417.13;;;-1.24;94.51
75192;BME280;63771;52.580;9.734;2023-02-15T08:19:44;102417.38;;;-1.17;95.07
75192;BME280;63771;52.580;9.734;2023-02-15T08:22:13;102413.31;;;-1.11;95.35
75192;BME280;63771;52.580;9.734;2023-02-15T08:24:39;102407.94;;;-1.02;95.37
75192;BME280;63771;52.580;9.734;2023-02-15T08:27:06;102395.63;;;-1.01;95.54
75192;BME280;63771;52.580;9.734;2023-02-15T08:29:34;102399.34;;;-0.88;95.85
75192;BME280;63771;52.580;9.734;2023-02-15T08:32:02;102400.28;;;-0.82;95.72
75192;BME280;63771;52.580;9.734;2023-02-15T08:34:34;102396.22;;;-0.75;95.81
75192;BME280;63771;52.580;9.734;2023-02-15T08:37:00;102397.81;;;-0.70;95.67
75192;BME280;63771;52.580;9.734;2023-02-15T08:39:26;102392.38;;;-0.68;96.04
75192;BME280;63771;52.580;9.734;2023-02-15T08:41:51;102383.94;;;-0.63;96.12
75192;BME280;63771;52.580;9.734;2023-02-15T08:44:18;102395.38;;;-0.54;96.39
75192;BME280;63771;52.580;9.734;2023-02-15T08:46:45;102394.97;;;-0.45;96.24
75192;BME280;63771;52.580;9.734;2023-02-15T08:49:14;102394.75;;;-0.41;96.07
75192;BME280;63771;52.580;9.734;2023-02-15T08:51:40;102388.16;;;-0.35;96.01
75192;BME280;63771;52.580;9.734;2023-02-15T08:54:07;102384.97;;;-0.34;96.32
75192;BME280;63771;52.580;9.734;2023-02-15T08:56:36;102387.50;;;-0.23;96.45
75192;BME280;63771;52.580;9.734;2023-02-15T08:59:03;102384.28;;;-0.16;96.56
75192;BME280;63771;52.580;9.734;2023-02-15T09:01:30;102383.66;;;-0.10;96.67
75192;BME280;63771;52.580;9.734;2023-02-15T09:03:58;102383.19;;;-0.02;96.77
75192;BME280;63771;52.580;9.734;2023-02-15T09:06:25;102389.13;;;0.05;96.78
75192;BME280;63771;52.580;9.734;2023-02-15T09:08:51;102384.09;;;0.10;96.89
75192;BME280;63771;52.580;9.734;2023-02-15T09:11:24;102381.63;;;0.16;96.85
75192;BME280;63771;52.580;9.734;2023-02-15T09:14:01;102379.34;;;0.23;96.90
75192;BME280;63771;52.580;9.734;2023-02-15T09:16:29;102378.41;;;0.28;96.75
75192;BME280;63771;52.580;9.734;2023-02-15T09:18:55;102382.06;;;0.36;96.97
75192;BME280;63771;52.580;9.734;2023-02-15T09:21:23;102380.91;;;0.39;97.08
75192;BME280;63771;52.580;9.734;2023-02-15T09:23:50;102375.88;;;0.50;97.12
75192;BME280;63771;52.580;9.734;2023-02-15T09:26:21;102375.19;;;0.57;97.21
75192;BME280;63771;52.580;9.734;2023-02-15T09:28:47;102374.50;;;0.64;97.02
75192;BME280;63771;52.580;9.734;2023-02-15T09:31:16;102374.50;;;0.69;96.98
75192;BME280;63771;52.580;9.734;2023-02-15T09:33:44;102372.66;;;0.80;97.10
75192;BME280;63771;52.580;9.734;2023-02-15T09:36:16;102369.44;;;0.86;96.97
75192;BME280;63771;52.580;9.734;2023-02-15T09:38:41;102370.78;;;0.95;97.02
75192;BME280;63771;52.580;9.734;2023-02-15T09:47:49;102366.97;;;1.33;97.29
75192;BME280;63771;52.580;9.734;2023-02-15T09:53:15;102354.03;;;1.59;97.53
75192;BME280;63771;52.580;9.734;2023-02-15T09:55:54;102359.88;;;1.71;97.52
75192;BME280;63771;52.580;9.734;2023-02-15T10:04:26;102349.97;;;2.13;98.08
75192;BME280;63771;52.580;9.734;2023-02-15T10:07:29;102348.25;;;2.30;98.09
75192;BME280;63771;52.580;9.734;2023-02-15T10:10:17;102346.94;;;2.45;97.81
75192;BME280;63771;52.580;9.734;2023-02-15T10:15:49;102352.16;;;2.71;97.95
75192;BME280;63771;52.580;9.734;2023-02-15T10:18:29;102352.47;;;2.85;98.04
75192;BME280;63771;52.580;9.734;2023-02-15T10:23:55;102346.41;;;3.14;97.96
75192;BME280;63771;52.580;9.734;2023-02-15T10:26:32;102353.97;;;3.32;96.97
75192;BME280;63771;52.580;9.734;2023-02-15T10:31:41;102345.25;;;3.67;94.83
75192;BME280;63771;52.580;9.734;2023-02-15T10:34:16;102347.59;;;3.78;94.22
75192;BME280;63771;52.580;9.734;2023-02-15T10:45:01;102331.72;;;4.23;92.03
75192;BME280;63771;52.580;9.734;2023-02-15T10:47:54;102338.19;;;4.34;92.15
75192;BME280;63771;52.580;9.734;2023-02-15T10:53:24;102329.41;;;4.50;91.86
75192;BME280;63771;52.580;9.734;2023-02-15T11:01:38;102324.44;;;4.70;91.25
75192;BME280;63771;52.580;9.734;2023-02-15T11:06:59;102317.59;;;4.89;90.06
75192;BME280;63771;52.580;9.734;2023-02-15T11:09:36;102310.50;;;4.99;89.57
75192;BME280;63771;52.580;9.734;2023-02-15T11:12:09;102305.94;;;5.09;89.84
75192;BME280;63771;52.580;9.734;2023-02-15T11:14:45;102299.53;;;5.18;89.89
75192;BME280;63771;52.580;9.734;2023-02-15T11:17:17;102297.59;;;5.23;89.30
75192;BME280;63771;52.580;9.734;2023-02-15T11:22:33;102304.06;;;5.41;87.16
75192;BME280;63771;52.580;9.734;2023-02-15T11:24:59;102287.72;;;5.52;86.32
75192;BME280;63771;52.580;9.734;2023-02-15T11:27:30;102290.72;;;5.62;85.59
75192;BME280;63771;52.580;9.734;2023-02-15T11:32:49;102284.53;;;5.80;86.49
75192;BME280;63771;52.580;9.734;2023-02-15T11:35:53;102291.53;;;5.95;84.56
75192;BME280;63771;52.580;9.734;2023-02-15T11:38:23;102285.09;;;6.04;84.75
75192;BME280;63771;52.580;9.734;2023-02-15T11:40:52;102277.56;;;6.11;84.41
75192;BME280;63771;52.580;9.734;2023-02-15T11:44:02;102266.72;;;6.19;81.57
75192;BME280;63771;52.580;9.734;2023-02-15T11:46:30;102273.69;;;6.35;81.55
75192;BME280;63771;52.580;9.734;2023-02-15T11:48:55;102264.13;;;6.39;82.03
75192;BME280;63771;52.580;9.734;2023-02-15T11:51:22;102268.31;;;6.46;81.29
75192;BME280;63771;52.580;9.734;2023-02-15T11:53:48;102263.09;;;6.51;80.62
75192;BME280;63771;52.580;9.734;2023-02-15T11:56:15;102269.69;;;6.64;80.73
75192;BME280;63771;52.580;9.734;2023-02-15T11:58:53;102268.63;;;6.76;78.72
75192;BME280;63771;52.580;9.734;2023-02-15T12:01:24;102257.25;;;6.79;79.27
75192;BME280;63771;52.580;9.734;2023-02-15T12:04:04;102260.69;;;6.87;78.68
75192;BME280;63771;52.580;9.734;2023-02-15T12:09:46;102250.41;;;7.00;77.73
75192;BME280;63771;52.580;9.734;2023-02-15T12:12:21;102251.88;;;7.05;77.13
75192;BME280;63771;52.580;9.734;2023-02-15T12:14:49;102243.53;;;7.13;76.10
75192;BME280;63771;52.580;9.734;2023-02-15T12:17:15;102243.00;;;7.30;72.86
75192;BME280;63771;52.580;9.734;2023-02-15T12:19:41;102241.75;;;7.41;72.62
75192;BME280;63771;52.580;9.734;2023-02-15T12:22:25;102234.16;;;7.48;73.04
75192;BME280;63771;52.580;9.734;2023-02-15T12:25:00;102231.78;;;7.49;74.33
75192;BME280;63771;52.580;9.734;2023-02-15T12:27:29;102229.06;;;7.55;74.64
75192;BME280;63771;52.580;9.734;2023-02-15T12:30:05;102231.22;;;7.59;73.01
75192;BME280;63771;52.580;9.734;2023-02-15T12:32:53;102224.69;;;7.61;73.01
75192;BME280;63771;52.580;9.734;2023-02-15T12:35:28;102222.72;;;7.73;73.07
75192;BME280;63771;52.580;9.734;2023-02-15T12:40:37;102224.66;;;7.90;72.16
75192;BME280;63771;52.580;9.734;2023-02-15T12:43:03;102219.03;;;7.92;72.84
75192;BME280;63771;52.580;9.734;2023-02-15T12:45:35;102220.66;;;7.99;70.87
75192;BME280;63771;52.580;9.734;2023-02-15T12:50:34;102214.13;;;8.01;73.03
75192;BME280;63771;52.580;9.734;2023-02-15T12:53:19;102212.66;;;8.10;70.99
75192;BME280;63771;52.580;9.734;2023-02-15T12:55:56;102212.59;;;8.17;71.70
75192;BME280;63771;52.580;9.734;2023-02-15T12:58:27;102211.88;;;8.25;71.10
75192;BME280;63771;52.580;9.734;2023-02-15T13:01:14;102198.75;;;8.29;71.47
75192;BME280;63771;52.580;9.734;2023-02-15T13:06:24;102201.81;;;8.34;71.99
75192;BME280;63771;52.580;9.734;2023-02-15T13:08:56;102194.03;;;8.32;71.63
75192;BME280;63771;52.580;9.734;2023-02-15T13:11:30;102188.22;;;8.33;71.97
75192;BME280;63771;52.580;9.734;2023-02-15T13:14:03;102181.31;;;8.32;72.01
75192;BME280;63771;52.580;9.734;2023-02-15T13:16:39;102169.16;;;8.37;71.65
75192;BME280;63771;52.580;9.734;2023-02-15T13:19:34;102172.03;;;8.40;72.48
75192;BME280;63771;52.580;9.734;2023-02-15T13:22:23;102178.38;;;8.44;71.66
75192;BME280;63771;52.580;9.734;2023-02-15T13:24:53;102168.59;;;8.47;71.98
75192;BME280;63771;52.580;9.734;2023-02-15T13:27:23;102176.00;;;8.52;67.75
75192;BME280;63771;52.580;9.734;2023-02-15T13:29:53;102163.06;;;8.58;67.73
75192;BME280;63771;52.580;9.734;2023-02-15T13:32:27;102162.28;;;8.66;67.77
75192;BME280;63771;52.580;9.734;2023-02-15T13:34:57;102157.69;;;8.78;64.35
75192;BME280;63771;52.580;9.734;2023-02-15T13:37:41;102160.00;;;8.83;65.21
75192;BME280;63771;52.580;9.734;2023-02-15T13:40:22;102143.25;;;8.85;66.03
75192;BME280;63771;52.580;9.734;2023-02-15T13:43:20;102148.69;;;8.88;65.79
75192;BME280;63771;52.580;9.734;2023-02-15T13:51:22;102139.50;;;8.98;65.87
75192;BME280;63771;52.580;9.734;2023-02-15T13:54:05;102141.66;;;9.02;66.51
75192;BME280;63771;52.580;9.734;2023-02-15T14:05:06;102137.22;;;9.15;66.11
75192;BME280;63771;52.580;9.734;2023-02-15T14:08:01;102137.06;;;9.13;66.94
75192;BME280;63771;52.580;9.734;2023-02-15T14:10:44;102128.66;;;9.14;64.74
75192;BME280;63771;52.580;9.734;2023-02-15T14:13:43;102132.28;;;9.17;66.21
75192;BME280;63771;52.580;9.734;2023-02-15T14:19:24;102126.69;;;9.12;66.04
75192;BME280;63771;52.580;9.734;2023-02-15T14:22:08;102123.63;;;9.07;66.98
75192;BME280;63771;52.580;9.734;2023-02-15T14:25:05;102127.13;;;9.01;68.06
75192;BME280;63771;52.580;9.734;2023-02-15T14:30:39;102117.72;;;8.93;68.51
75192;BME280;63771;52.580;9.734;2023-02-15T14:33:28;102117.41;;;8.89;69.07
75192;BME280;63771;52.580;9.734;2023-02-15T14:35:54;102116.91;;;8.85;69.24
75192;BME280;63771;52.580;9.734;2023-02-15T14:38:47;102108.38;;;8.84;69.14
75192;BME280;63771;52.580;9.734;2023-02-15T14:44:25;102115.84;;;8.83;69.95
75192;BME280;63771;52.580;9.734;2023-02-15T14:46:50;102109.84;;;8.82;70.24
75192;BME280;63771;52.580;9.734;2023-02-15T14:49:24;102112.19;;;8.81;69.97
75192;BME280;63771;52.580;9.734;2023-02-15T14:56:41;102113.44;;;8.84;67.29
75192;BME280;63771;52.580;9.734;2023-02-15T14:59:18;102112.31;;;8.89;67.94